Time,TemperatureF,DewpointF,PressureIn,WindDirection,WindDirectionDegrees,WindSpeedMPH,WindSpeedGustMPH,Humidity,HourlyPrecipIn,Conditions,Clouds,dailyrainin,SoftwareType,DateUTC
2013-04-08 00:00:00,46.5,36.2,29.87,South,172,0.0,0.0,67,0.00,,SKC,0.00,VWS V14.01,2013-04-08 04:00:00,
2013-04-08 01:00:00,46.4,36.0,29.89,South,172,0.0,4.0,67,0.00,,SKC,0.00,VWS V14.01,2013-04-08 05:00:00,
2013-04-08 02:00:00,45.4,35.5,29.87,SSE,161,0.0,6.0,68,0.00,,SKC,0.00,VWS V14.01,2013-04-08 06:00:00,
2013-04-08 03:00:00,43.9,35.1,29.86,SE,143,0.0,6.0,71,0.00,,SKC,0.00,VWS V14.01,2013-04-08 07:00:00,
2013-04-08 04:00:00,42.8,34.8,29.86,SE,143,0.0,5.0,73,0.00,,SKC,0.00,VWS V14.01,2013-04-08 08:00:00,
2013-04-08 05:00:00,41.9,34.6,29.85,SSW,211,0.0,9.0,75,0.00,,SKC,0.00,VWS V14.01,2013-04-08 09:00:00,
2013-04-08 06:00:00,41.2,34.9,29.87,SSW,211,0.0,6.0,78,0.00,,SKC,0.00,VWS V14.01,2013-04-08 10:00:00,
2013-04-08 07:00:00,42.5,35.8,29.88,SSW,211,0.0,4.0,77,0.00,,SKC,0.00,VWS V14.01,2013-04-08 11:00:00,
2013-04-08 07:28:00,44.5,36.4,29.89,WSW,257,0.0,9.0,73,0.00,,SKC,0.00,VWS V14.01,2013-04-08 11:28:00,
2013-04-08 07:29:00,44.5,36.4,29.89,WSW,254,5.0,9.0,73,0.00,,SKC,0.00,VWS V14.01,2013-04-08 11:29:00,
2013-04-08 07:30:00,44.5,36.4,29.89,WSW,251,4.0,9.0,73,0.00,,SKC,0.00,VWS V14.01,2013-04-08 11:30:00,
2013-04-08 07:31:00,44.6,36.5,29.89,WSW,249,6.0,9.0,73,0.00,,SKC,0.00,VWS V14.01,2013-04-08 11:31:00,
2013-04-08 07:32:00,44.8,36.7,29.89,WSW,249,2.0,9.0,73,0.00,,SKC,0.00,VWS V14.01,2013-04-08 11:32:00,
2013-04-08 07:33:00,44.9,36.8,29.89,WSW,248,3.0,9.0,73,0.00,,SKC,0.00,VWS V14.01,2013-04-08 11:33:00,
2013-04-08 07:34:00,44.9,36.8,29.89,SSW,200,4.0,9.0,73,0.00,,SKC,0.00,VWS V14.01,2013-04-08 11:34:00,
2013-04-08 07:35:00,45.1,37.0,29.89,South,184,0.0,9.0,73,0.00,,SKC,0.00,VWS V14.01,2013-04-08 11:35:00,
2013-04-08 07:36:00,45.1,37.0,29.89,South,184,1.0,9.0,73,0.00,,SKC,0.00,VWS V14.01,2013-04-08 11:36:00,
2013-04-08 07:37:00,45.2,36.7,29.89,South,188,2.0,9.0,72,0.00,,SKC,0.00,VWS V14.01,2013-04-08 11:37:00,
2013-04-08 07:38:00,45.2,36.7,29.89,SSW,211,6.0,9.0,72,0.00,,SKC,0.00,VWS V14.01,2013-04-08 11:38:00,
2013-04-08 07:39:00,45.4,36.9,29.89,SSW,200,7.0,9.0,72,0.00,,SKC,0.00,VWS V14.01,2013-04-08 11:39:00,
2013-04-08 07:40:00,45.4,36.9,29.89,SSW,202,4.0,9.0,72,0.00,,SKC,0.00,VWS V14.01,2013-04-08 11:40:00,
2013-04-08 07:41:00,45.4,36.9,29.89,SSW,202,4.0,9.0,72,0.00,,SKC,0.00,VWS V14.01,2013-04-08 11:41:00,
2013-04-08 07:42:00,45.5,37.0,29.89,SSW,202,0.0,9.0,72,0.00,,SKC,0.00,VWS V14.01,2013-04-08 11:42:00,
2013-04-08 07:43:00,45.5,37.0,29.89,SSW,202,0.0,9.0,72,0.00,,SKC,0.00,VWS V14.01,2013-04-08 11:43:00,
2013-04-08 07:44:00,45.7,37.2,29.89,SSW,202,0.0,9.0,72,0.00,,SKC,0.00,VWS V14.01,2013-04-08 11:44:00,
2013-04-08 07:45:00,45.8,37.3,29.89,SSW,202,0.0,9.0,72,0.00,,SKC,0.00,VWS V14.01,2013-04-08 11:45:00,
2013-04-08 07:46:00,46.0,37.5,29.89,SSW,202,0.0,9.0,72,0.00,,SKC,0.00,VWS V14.01,2013-04-08 11:46:00,
2013-04-08 07:47:00,46.1,37.6,29.89,SSW,202,0.0,9.0,72,0.00,,SKC,0.00,VWS V14.01,2013-04-08 11:47:00,
2013-04-08 07:49:00,46.2,37.3,29.89,SSW,202,0.0,9.0,71,0.00,,SKC,0.00,VWS V14.01,2013-04-08 11:49:00,
2013-04-08 07:51:00,46.7,37.8,29.89,SSW,202,0.0,9.0,71,0.00,,SKC,0.00,VWS V14.01,2013-04-08 11:51:00,
2013-04-08 07:52:00,46.8,37.9,29.89,SSW,202,0.0,9.0,71,0.00,,SKC,0.00,VWS V14.01,2013-04-08 11:52:00,
2013-04-08 08:00:00,47.7,38.4,29.88,SSW,203,0.0,9.0,70,0.00,,SKC,0.00,VWS V14.01,2013-04-08 12:00:00,
2013-04-08 08:46:00,45.8,37.3,29.89,SSW,202,0.0,9.0,72,0.00,,SKC,0.00,VWS V14.01,2013-04-08 12:46:00,
2013-04-08 08:51:00,46.5,37.6,29.89,SSW,202,0.0,9.0,71,0.00,,SKC,0.00,VWS V14.01,2013-04-08 12:51:00,
2013-04-08 08:56:00,47.1,37.8,29.89,SSW,203,5.0,9.0,70,0.00,,SKC,0.00,VWS V14.01,2013-04-08 12:56:00,
2013-04-08 09:00:00,54.7,42.4,29.86,West,261,5.0,7.0,63,0.00,,SKC,0.00,VWS V14.01,2013-04-08 13:00:00,
2013-04-08 09:01:00,47.9,38.2,29.88,SSW,203,0.0,0.0,69,0.00,,SKC,0.00,VWS V14.01,2013-04-08 13:01:00,
2013-04-08 09:06:00,48.5,38.4,29.88,SSW,211,0.0,6.0,68,0.00,,SKC,0.00,VWS V14.01,2013-04-08 13:06:00,
2013-04-08 09:11:00,49.4,39.3,29.88,SSW,212,0.0,6.0,68,0.00,,SKC,0.00,VWS V14.01,2013-04-08 13:11:00,
2013-04-08 09:17:00,49.9,39.4,29.88,SW,217,0.0,6.0,67,0.00,,SKC,0.00,VWS V14.01,2013-04-08 13:17:00,
2013-04-08 09:22:00,50.2,39.3,29.88,SW,217,0.0,6.0,66,0.00,,SKC,0.00,VWS V14.01,2013-04-08 13:22:00,
2013-04-08 09:27:00,50.4,39.5,29.88,West,263,4.0,7.0,66,0.00,,SKC,0.00,VWS V14.01,2013-04-08 13:27:00,
2013-04-08 10:00:00,60.1,46.2,29.84,WNW,293,5.0,10.0,60,0.00,,SKC,0.00,VWS V14.01,2013-04-08 14:00:00,
2013-04-08 11:00:00,65.0,46.5,29.82,WNW,295,7.0,12.0,51,0.00,,SKC,0.00,VWS V14.01,2013-04-08 15:00:00,
2013-04-08 12:00:00,67.8,44.5,29.78,North,355,1.0,16.0,43,0.00,,SKC,0.00,VWS V14.01,2013-04-08 16:00:00,
2013-04-08 13:00:00,69.4,44.1,29.76,NW,318,14.0,24.0,40,0.00,,SKC,0.00,VWS V14.01,2013-04-08 17:00:00,
2013-04-08 14:00:00,70.8,44.6,29.74,NW,322,6.0,24.0,39,0.00,,SKC,0.00,VWS V14.01,2013-04-08 18:00:00,
2013-04-08 15:00:00,69.6,44.2,29.73,NW,321,4.0,21.0,40,0.00,,SKC,0.00,VWS V14.01,2013-04-08 19:00:00,
2013-04-08 16:00:00,68.4,46.2,29.75,North,5,0.0,15.0,45,0.00,,SKC,0.00,VWS V14.01,2013-04-08 20:00:00,
2013-04-08 17:00:00,69.1,46.3,29.74,NW,304,9.0,18.0,44,0.00,,SKC,0.00,VWS V14.01,2013-04-08 21:00:00,
2013-04-08 18:00:00,70.1,46.6,29.74,NW,319,8.0,15.0,43,0.00,,SKC,0.00,VWS V14.01,2013-04-08 22:00:00,
2013-04-08 19:00:00,68.6,46.4,29.74,NW,308,9.0,15.0,45,0.00,,SKC,0.00,VWS V14.01,2013-04-08 23:00:00,
2013-04-08 20:00:00,67.9,47.5,29.76,NW,323,9.0,13.0,48,0.00,,SKC,0.00,VWS V14.01,2013-04-09 00:00:00,
2013-04-08 21:00:00,67.4,48.1,29.78,NW,319,6.0,15.0,50,0.00,,SKC,0.00,VWS V14.01,2013-04-09 01:00:00,
2013-04-08 22:00:00,66.1,49.0,29.79,WNW,294,5.0,14.0,54,0.00,,SKC,0.00,VWS V14.01,2013-04-09 02:00:00,
2013-04-08 22:59:00,65.2,50.1,29.80,WNW,303,0.0,15.0,58,0.00,,SKC,0.00,VWS V14.01,2013-04-09 02:59:00,
2013-04-08 23:00:00,65.2,50.1,29.80,WNW,303,0.0,15.0,58,0.00,,SKC,0.00,VWS V14.01,2013-04-09 03:00:00,
2013-04-08 23:01:00,65.0,49.9,29.80,NW,306,4.0,9.0,58,0.00,,SKC,0.00,VWS V14.01,2013-04-09 03:01:00,
2013-04-08 23:41:00,65.6,49.5,29.80,North,350,8.0,15.0,56,0.00,,SKC,0.00,VWS V14.01,2013-04-09 03:41:00,
2013-04-08 23:47:00,65.5,49.9,29.80,NW,323,4.0,15.0,57,0.00,,SKC,0.00,VWS V14.01,2013-04-09 03:47:00,
2013-04-08 23:52:00,65.5,49.9,29.80,NW,319,6.0,15.0,57,0.00,,SKC,0.00,VWS V14.01,2013-04-09 03:52:00,
2013-04-08 23:57:00,65.3,50.2,29.80,North,355,5.0,15.0,58,0.00,,SKC,0.00,VWS V14.01,2013-04-09 03:57:00,